Terminal Aerodrome Forecast
Issued by NWS

Home | Current Version | Previous Version | Text Only | Print | Product List | Glossary On
Versions: 1 2 3 4 5 6 7 8 9 10 11 12 13 14 15 16 17 18 19 20 21 22 23 24 25 26 27
000
FTUS41 KBUF 021500 AAB
TAFIAG
TAF AMD
KIAG 021520Z 0215/0312 16008KT P6SM FEW025 SCT220
     FM022100 08006KT P6SM SCT045 SCT250
     FM022300 VRB03KT P6SM SCT150
     FM030300 15004KT P6SM SCT200
     FM030900 16008KT P6SM SCT150=

USA.gov is the U.S. government's official web portal to all federal, state and local government web resources and services.